Terminal Aerodrome Forecast
Issued by NWS Boston, MA

Home | Current Version | Previous Version | Text Only | Print | Product List | Glossary On
Versions: 1 2 3 4 5 6 7 8 9 10 11 12 13 14 15 16 17 18 19 20 21 22 23 24 25 26 27 28 29 30 31 32 33 34
000
FTUS41 KBOX 271120
TAFORH
TAF
KORH 271120Z 2712/2812 22005KT P6SM -SHRA OVC070
     FM271500 20007KT P6SM OVC040
     FM271700 19007KT P6SM -SHRA OVC060
     FM280000 25006KT P6SM BKN200
     FM280900 27010KT P6SM FEW250=

USA.gov is the U.S. government's official web portal to all federal, state and local government web resources and services.